createdAt,value
2023-03-08T00:00:54.214Z,19.15
2023-03-08T00:02:58.037Z,21.85
2023-03-08T00:05:01.804Z,19.02
2023-03-08T00:07:05.833Z,17.83
2023-03-08T00:09:08.398Z,17.95
2023-03-08T00:11:12.789Z,18.33
2023-03-08T00:13:15.683Z,19.23
2023-03-08T00:15:19.156Z,20.38
2023-03-08T00:17:22.200Z,17.48
2023-03-08T00:19:24.746Z,20.27
2023-03-08T00:21:27.324Z,22.15
2023-03-08T00:23:31.369Z,20.23
2023-03-08T00:25:33.953Z,22.48
2023-03-08T00:27:37.365Z,18.02
2023-03-08T00:29:40.110Z,18.00
2023-03-08T00:31:42.843Z,20.58
2023-03-08T00:33:45.424Z,19.10
2023-03-08T00:35:55.921Z,20.70
2023-03-08T00:37:58.619Z,19.15
2023-03-08T00:40:02.800Z,19.77
2023-03-08T00:42:05.609Z,21.15
2023-03-08T00:44:08.196Z,23.42
2023-03-08T00:46:11.276Z,19.60
2023-03-08T00:48:13.914Z,18.90
2023-03-08T00:50:16.555Z,24.15
2023-03-08T00:52:19.237Z,19.05
2023-03-08T00:54:21.839Z,21.70
2023-03-08T00:56:25.781Z,20.05
2023-03-08T00:58:30.257Z,17.77
2023-03-08T01:00:33.026Z,19.42
2023-03-08T01:02:35.615Z,19.58
2023-03-08T01:04:38.256Z,19.30
2023-03-08T01:06:40.981Z,26.33
2023-03-08T01:08:44.390Z,20.65
2023-03-08T01:10:48.955Z,20.42
2023-03-08T01:12:52.889Z,19.15
2023-03-08T01:14:55.481Z,20.08
2023-03-08T01:16:58.054Z,20.70
2023-03-08T01:19:01.960Z,19.60
2023-03-08T01:21:05.711Z,18.23
2023-03-08T01:23:08.568Z,25.45
2023-03-08T01:25:11.226Z,17.67
2023-03-08T01:27:14.523Z,20.63
2023-03-08T01:29:18.450Z,20.08
2023-03-08T01:31:22.951Z,19.13
2023-03-08T01:33:25.562Z,20.88
2023-03-08T01:35:28.143Z,21.15
2023-03-08T01:37:30.880Z,19.80
2023-03-08T01:39:33.488Z,21.95
2023-03-08T01:41:36.130Z,18.52
2023-03-08T01:43:42.117Z,21.35
2023-03-08T01:46:07.866Z,19.13
2023-03-08T01:48:10.572Z,20.33
2023-03-08T01:50:14.506Z,20.92
2023-03-08T01:52:22.678Z,23.42
2023-03-08T01:54:30.798Z,23.80
2023-03-08T01:56:34.178Z,20.42
2023-03-08T01:58:37.080Z,18.10
2023-03-08T02:00:40.474Z,20.20
2023-03-08T02:02:50.432Z,19.17
2023-03-08T02:04:53.049Z,20.48
2023-03-08T02:06:55.614Z,20.00
2023-03-08T02:09:03.452Z,20.92
2023-03-08T02:11:06.653Z,23.38
2023-03-08T02:13:11.403Z,22.88
2023-03-08T02:15:16.398Z,17.77
2023-03-08T02:17:18.977Z,18.13
2023-03-08T02:19:27.676Z,16.83
2023-03-08T02:21:31.543Z,20.75
2023-03-08T02:23:35.429Z,19.73
2023-03-08T02:25:38.425Z,23.05
2023-03-08T02:27:41.188Z,21.15
2023-03-08T02:29:43.853Z,22.95
2023-03-08T02:31:46.440Z,22.00
2023-03-08T02:33:49.161Z,18.77
2023-03-08T02:35:52.477Z,21.67
2023-03-08T02:37:55.058Z,20.58
2023-03-08T02:39:58.972Z,20.17
2023-03-08T02:42:01.553Z,20.33
2023-03-08T02:44:04.311Z,17.77
2023-03-08T02:46:07.025Z,20.15
2023-03-08T02:48:09.953Z,20.75
2023-03-08T02:50:12.939Z,19.92
2023-03-08T02:52:15.594Z,21.52
2023-03-08T02:54:18.251Z,21.98
2023-03-08T02:56:22.269Z,22.52
2023-03-08T02:58:25.105Z,21.35
2023-03-08T03:00:27.823Z,25.20
2023-03-08T03:02:30.404Z,16.92
2023-03-08T03:04:34.092Z,22.42
2023-03-08T03:06:36.676Z,19.73
2023-03-08T03:08:39.331Z,22.40
2023-03-08T03:10:42.061Z,24.02
2023-03-08T03:12:45.949Z,21.08
2023-03-08T03:14:48.493Z,22.63
2023-03-08T03:16:51.124Z,20.40
2023-03-08T03:18:54.437Z,19.05
2023-03-08T03:21:03.165Z,21.88
2023-03-08T03:23:06.409Z,21.65
2023-03-08T03:25:09.782Z,19.25
2023-03-08T03:27:12.386Z,22.77
2023-03-08T03:29:16.278Z,17.08
2023-03-08T03:31:21.277Z,25.45
2023-03-08T03:33:23.866Z,19.33
2023-03-08T03:35:26.432Z,21.85
2023-03-08T03:37:29.173Z,19.65
2023-03-08T03:39:34.784Z,17.63
2023-03-08T03:41:37.380Z,21.98
2023-03-08T03:43:40.491Z,19.30
2023-03-08T03:45:44.411Z,19.75
2023-03-08T03:47:47.997Z,21.23
2023-03-08T03:49:50.579Z,20.77
2023-03-08T03:51:53.256Z,23.58
2023-03-08T03:53:56.015Z,22.90
2023-03-08T03:56:05.232Z,23.50
2023-03-08T03:58:07.860Z,22.08
2023-03-08T04:00:11.823Z,23.80
2023-03-08T04:02:18.598Z,19.92
2023-03-08T04:04:21.286Z,21.38
2023-03-08T04:06:25.338Z,21.27
2023-03-08T04:08:29.171Z,22.35
2023-03-08T04:10:32.599Z,17.05
2023-03-08T04:12:35.198Z,21.65
2023-03-08T04:14:39.572Z,20.77
2023-03-08T04:16:42.759Z,19.38
2023-03-08T04:18:47.053Z,22.40
2023-03-08T04:20:49.620Z,21.40
2023-03-08T04:22:52.264Z,20.25
2023-03-08T04:24:54.888Z,19.20
2023-03-08T04:26:57.498Z,20.42
2023-03-08T04:29:00.162Z,20.55
2023-03-08T04:31:12.932Z,21.50
2023-03-08T04:33:15.574Z,19.10
2023-03-08T04:35:21.133Z,21.83
2023-03-08T04:37:23.760Z,23.38
2023-03-08T04:39:26.349Z,20.77
2023-03-08T04:41:28.960Z,19.15
2023-03-08T04:43:31.826Z,26.50
2023-03-08T04:45:34.440Z,21.88
2023-03-08T04:47:37.009Z,21.60
2023-03-08T04:49:42.506Z,21.98
2023-03-08T04:51:46.607Z,21.95
2023-03-08T04:53:49.193Z,22.05
2023-03-08T04:55:54.990Z,26.13
2023-03-08T04:57:57.608Z,23.90
2023-03-08T05:00:02.611Z,25.90
2023-03-08T05:02:07.985Z,21.75
2023-03-08T05:04:11.884Z,19.23
2023-03-08T05:06:15.072Z,22.95
2023-03-08T05:08:19.888Z,23.73
2023-03-08T05:10:22.452Z,22.30
2023-03-08T05:12:27.757Z,22.40
2023-03-08T05:14:30.382Z,22.85
2023-03-08T05:16:33.064Z,24.83
2023-03-08T05:18:35.780Z,20.52
2023-03-08T05:20:38.431Z,27.17
2023-03-08T05:22:56.869Z,26.95
2023-03-08T05:25:01.771Z,24.95
2023-03-08T05:27:04.587Z,21.92
2023-03-08T05:29:07.691Z,22.55
2023-03-08T05:31:13.464Z,26.58
2023-03-08T05:33:17.001Z,21.02
2023-03-08T05:35:19.623Z,26.52
2023-03-08T05:37:27.400Z,25.85
2023-03-08T05:39:30.812Z,23.83
2023-03-08T05:41:34.733Z,25.60
2023-03-08T05:43:37.351Z,29.85
2023-03-08T05:45:40.017Z,23.10
2023-03-08T05:47:42.803Z,25.08
2023-03-08T05:49:45.439Z,28.13
2023-03-08T05:51:48.021Z,24.77
2023-03-08T05:53:50.588Z,26.80
2023-03-08T05:55:55.389Z,24.70
2023-03-08T05:57:59.303Z,23.50
2023-03-08T06:00:01.866Z,22.83
2023-03-08T06:02:04.526Z,24.35
2023-03-08T06:04:07.164Z,23.58
2023-03-08T06:06:09.831Z,22.48
2023-03-08T06:08:12.400Z,32.20
2023-03-08T06:10:15.074Z,24.40
2023-03-08T06:12:17.611Z,32.17
2023-03-08T06:14:21.541Z,35.10
2023-03-08T06:16:24.457Z,33.50
2023-03-08T06:18:28.440Z,37.85
2023-03-08T06:20:31.183Z,29.75
2023-03-08T06:22:33.988Z,25.75
2023-03-08T06:24:36.544Z,31.05
2023-03-08T06:26:39.171Z,29.50
2023-03-08T06:28:42.164Z,36.42
2023-03-08T06:30:49.164Z,34.15
2023-03-08T06:32:51.800Z,36.70
2023-03-08T06:34:54.366Z,31.25
2023-03-08T06:36:59.682Z,28.35
2023-03-08T06:39:02.318Z,32.42
2023-03-08T06:41:06.136Z,30.10
2023-03-08T06:43:08.661Z,30.58
2023-03-08T06:45:12.573Z,31.42
2023-03-08T06:47:16.528Z,33.22
2023-03-08T06:49:19.109Z,32.92
2023-03-08T06:51:21.719Z,32.65
2023-03-08T06:53:24.315Z,33.35
2023-03-08T06:55:27.099Z,34.17
2023-03-08T06:57:29.688Z,33.30
2023-03-08T06:59:32.326Z,28.92
2023-03-08T07:01:34.953Z,30.98
2023-03-08T07:03:39.482Z,35.05
2023-03-08T07:05:42.659Z,36.40
2023-03-08T07:07:45.323Z,32.13
2023-03-08T07:09:47.986Z,35.97
2023-03-08T07:11:50.632Z,36.63
2023-03-08T07:13:53.482Z,30.73
2023-03-08T07:15:56.342Z,42.30
2023-03-08T07:17:58.961Z,32.92
2023-03-08T07:20:05.250Z,34.08
2023-03-08T07:22:07.994Z,33.08
2023-03-08T07:24:10.571Z,32.72
2023-03-08T07:26:13.179Z,31.98
2023-03-08T07:28:15.885Z,32.78
2023-03-08T07:30:18.720Z,31.13
2023-03-08T07:32:23.421Z,36.25
2023-03-08T07:34:26.111Z,30.95
2023-03-08T07:36:30.023Z,28.13
2023-03-08T07:38:32.634Z,29.55
2023-03-08T07:40:35.244Z,33.20
2023-03-08T07:42:37.815Z,37.75
2023-03-08T07:44:40.405Z,27.75
2023-03-08T07:46:43.069Z,28.13
2023-03-08T07:48:45.679Z,31.90
2023-03-08T07:50:48.909Z,30.52
2023-03-08T07:52:52.833Z,30.63
2023-03-08T07:54:55.470Z,33.13
2023-03-08T07:56:58.071Z,27.23
2023-03-08T07:59:03.037Z,32.35
2023-03-08T08:01:09.831Z,29.00
2023-03-08T08:03:12.456Z,25.63
2023-03-08T08:05:15.858Z,28.35
2023-03-08T08:07:18.842Z,27.83
2023-03-08T08:09:22.796Z,28.52
2023-03-08T08:11:26.374Z,24.55
2023-03-08T08:13:29.111Z,30.98
2023-03-08T08:15:31.927Z,27.73
2023-03-08T08:17:35.235Z,28.00
2023-03-08T08:19:38.153Z,26.50
2023-03-08T08:21:40.736Z,25.13
2023-03-08T08:23:44.134Z,26.08
2023-03-08T08:25:50.224Z,25.10
2023-03-08T08:27:53.290Z,24.75
2023-03-08T08:29:56.191Z,26.50
2023-03-08T08:31:58.769Z,28.77
2023-03-08T08:34:01.866Z,27.50
2023-03-08T08:36:06.345Z,36.13
2023-03-08T08:38:08.982Z,31.30
2023-03-08T08:40:12.939Z,25.42
2023-03-08T08:42:16.842Z,27.42
2023-03-08T08:44:19.520Z,26.35
2023-03-08T08:46:22.127Z,22.38
2023-03-08T08:48:24.993Z,20.60
2023-03-08T08:50:27.678Z,20.85
2023-03-08T08:52:30.237Z,26.55
2023-03-08T08:54:33.785Z,17.27
2023-03-08T08:56:42.565Z,24.50
2023-03-08T08:58:48.107Z,20.17
2023-03-08T09:00:51.071Z,17.40
2023-03-08T09:02:53.742Z,18.83
2023-03-08T09:04:56.352Z,22.08
2023-03-08T09:06:59.002Z,20.02
2023-03-08T09:09:01.993Z,19.60
2023-03-08T09:11:06.190Z,34.17
2023-03-08T09:13:08.866Z,25.17
2023-03-08T09:15:13.049Z,30.80
2023-03-08T09:17:15.638Z,34.45
2023-03-08T09:19:18.255Z,35.50
2023-03-08T09:21:20.982Z,33.83
2023-03-08T09:23:23.578Z,36.20
2023-03-08T09:25:26.182Z,32.90
2023-03-08T09:27:28.817Z,33.45
2023-03-08T09:29:31.394Z,34.50
2023-03-08T09:31:37.088Z,29.30
2023-03-08T09:33:40.397Z,25.52
2023-03-08T09:35:43.067Z,19.27
2023-03-08T09:37:45.652Z,15.80
2023-03-08T09:39:51.959Z,14.90
2023-03-08T09:41:56.860Z,11.35
2023-03-08T09:44:15.106Z,10.20
2023-03-08T09:46:25.662Z,8.98
2023-03-08T09:48:31.270Z,7.05
2023-03-08T09:50:39.990Z,8.85
2023-03-08T09:52:48.430Z,7.13
2023-03-08T09:54:52.422Z,6.20
2023-03-08T09:56:56.406Z,9.00
2023-03-08T09:59:03.407Z,6.47
2023-03-08T10:01:19.583Z,4.82
2023-03-08T10:03:57.886Z,6.30
2023-03-08T10:06:10.116Z,6.20
2023-03-08T10:08:17.619Z,5.70
2023-03-08T10:10:29.550Z,7.40
2023-03-08T10:14:44.249Z,3.90
2023-03-08T10:16:51.470Z,4.82
2023-03-08T10:18:59.727Z,6.63
2023-03-08T10:21:03.212Z,7.57
2023-03-08T10:23:14.882Z,7.45
2023-03-08T10:25:24.512Z,8.95
2023-03-08T10:27:29.358Z,5.68
2023-03-08T10:29:31.916Z,8.32
2023-03-08T10:31:34.645Z,5.97
2023-03-08T10:33:37.520Z,7.72
2023-03-08T10:35:56.331Z,9.57
2023-03-08T10:37:59.029Z,9.18
2023-03-08T10:40:05.879Z,11.80
2023-03-08T10:42:16.173Z,9.52
2023-03-08T10:44:33.625Z,7.05
2023-03-08T10:46:47.619Z,4.82
2023-03-08T10:48:50.406Z,7.90
2023-03-08T10:51:01.958Z,8.55
2023-03-08T10:53:19.174Z,7.35
2023-03-08T10:55:23.353Z,13.45
2023-03-08T10:57:26.134Z,6.82
2023-03-08T10:59:33.224Z,4.07
2023-03-08T11:01:48.609Z,6.60
2023-03-08T11:03:59.671Z,4.32
2023-03-08T11:06:06.665Z,3.78
2023-03-08T11:08:18.604Z,4.20
2023-03-08T11:10:24.221Z,5.47
2023-03-08T11:12:27.558Z,5.88
2023-03-08T11:14:30.818Z,4.55
2023-03-08T11:16:46.622Z,3.97
2023-03-08T11:19:01.738Z,6.90
2023-03-08T11:21:13.841Z,4.43
2023-03-08T11:23:23.621Z,6.50
2023-03-08T11:25:35.351Z,2.83
2023-03-08T11:27:48.856Z,7.95
2023-03-08T11:30:02.189Z,3.10
2023-03-08T11:32:15.237Z,5.65
2023-03-08T11:34:54.435Z,4.07
2023-03-08T11:37:06.709Z,5.28
2023-03-08T11:39:19.206Z,2.70
2023-03-08T11:41:26.618Z,2.75
2023-03-08T11:43:55.168Z,3.60
2023-03-08T11:46:05.404Z,2.78
2023-03-08T11:48:35.348Z,2.63
2023-03-08T11:50:43.345Z,1.10
2023-03-08T11:53:00.569Z,1.02
2023-03-08T11:55:21.719Z,0.98
2023-03-08T11:57:29.950Z,2.77
2023-03-08T11:59:35.560Z,1.10
2023-03-08T12:01:42.335Z,1.70
2023-03-08T12:03:48.431Z,2.95
2023-03-08T12:05:55.199Z,3.10
2023-03-08T12:08:03.956Z,2.00
2023-03-08T12:10:16.704Z,1.98
2023-03-08T12:12:25.154Z,1.65
2023-03-08T12:14:31.958Z,2.75
2023-03-08T12:16:41.769Z,3.97
2023-03-08T12:18:49.550Z,3.40
2023-03-08T12:20:58.538Z,2.30
2023-03-08T12:23:11.011Z,1.42
2023-03-08T12:25:25.271Z,4.25
2023-03-08T12:27:33.524Z,1.58
2023-03-08T12:29:42.433Z,2.67
2023-03-08T12:31:48.067Z,2.05
2023-03-08T12:33:50.695Z,2.15
2023-03-08T12:35:55.488Z,3.33
2023-03-08T12:38:00.929Z,1.65
2023-03-08T12:40:08.198Z,4.07
2023-03-08T12:42:29.211Z,6.32
2023-03-08T12:44:32.274Z,2.13
2023-03-08T12:47:01.448Z,4.63
2023-03-08T12:49:04.738Z,2.83
2023-03-08T12:51:20.394Z,4.10
2023-03-08T12:53:31.606Z,5.60
2023-03-08T12:55:35.543Z,2.25
2023-03-08T12:57:43.020Z,1.13
2023-03-08T12:59:45.886Z,2.65
2023-03-08T13:02:01.208Z,0.77
2023-03-08T13:04:05.269Z,1.15
2023-03-08T13:06:46.156Z,4.32
2023-03-08T13:08:55.095Z,4.03
2023-03-08T13:11:13.690Z,1.05
2023-03-08T13:13:38.862Z,1.88
2023-03-08T13:15:41.957Z,2.28
2023-03-08T13:17:52.428Z,3.00
2023-03-08T13:19:55.828Z,2.13
2023-03-08T13:22:10.175Z,3.50
2023-03-08T13:24:18.087Z,3.45
2023-03-08T13:26:50.728Z,1.02
2023-03-08T13:28:54.522Z,1.25
2023-03-08T13:30:59.285Z,1.08
2023-03-08T13:33:02.479Z,2.55
2023-03-08T13:35:06.537Z,1.63
2023-03-08T13:37:21.802Z,1.83
2023-03-08T13:39:27.105Z,1.10
2023-03-08T13:41:35.959Z,3.13
2023-03-08T13:43:38.573Z,2.90
2023-03-08T13:45:41.628Z,5.00
2023-03-08T13:47:45.954Z,0.82
2023-03-08T13:49:51.821Z,3.00
2023-03-08T13:51:57.391Z,2.85
2023-03-08T13:54:00.094Z,5.07
2023-03-08T13:56:04.902Z,1.67
2023-03-08T13:58:20.986Z,0.95
2023-03-08T14:00:29.577Z,4.30
2023-03-08T14:02:34.501Z,2.42
2023-03-08T14:04:37.364Z,0.98
2023-03-08T14:06:43.295Z,1.15
2023-03-08T14:08:46.861Z,0.65
2023-03-08T14:10:54.114Z,0.95
2023-03-08T14:12:57.219Z,0.90
2023-03-08T14:15:04.526Z,0.93
2023-03-08T14:17:07.406Z,2.22
2023-03-08T14:19:12.596Z,3.42
2023-03-08T14:21:17.782Z,0.57
2023-03-08T14:23:25.314Z,0.88
2023-03-08T14:25:30.209Z,0.80
2023-03-08T14:27:38.108Z,5.00
2023-03-08T14:29:42.256Z,3.92
2023-03-08T14:32:05.816Z,1.48
2023-03-08T14:34:20.179Z,1.02
2023-03-08T14:36:22.854Z,1.85
2023-03-08T14:38:28.191Z,1.00
2023-03-08T14:40:35.209Z,1.40
2023-03-08T14:42:44.024Z,1.92
2023-03-08T14:44:52.690Z,1.27
2023-03-08T14:46:59.131Z,2.38
2023-03-08T14:49:04.990Z,1.90
2023-03-08T14:51:28.885Z,3.58
2023-03-08T14:53:34.504Z,1.33
2023-03-08T14:55:38.654Z,1.10
2023-03-08T14:57:41.267Z,0.93
2023-03-08T14:59:44.749Z,1.80
2023-03-08T15:01:47.340Z,3.22
2023-03-08T15:03:49.935Z,9.75
2023-03-08T15:05:54.701Z,1.45
2023-03-08T15:07:59.274Z,2.67
2023-03-08T15:10:05.143Z,3.10
2023-03-08T15:12:09.341Z,1.63
2023-03-08T15:14:12.855Z,1.58
2023-03-08T15:16:15.483Z,1.52
2023-03-08T15:18:18.362Z,1.55
2023-03-08T15:20:22.279Z,3.63
2023-03-08T15:22:26.231Z,0.60
2023-03-08T15:24:29.214Z,1.30
2023-03-08T15:26:32.961Z,2.30
2023-03-08T15:28:35.638Z,1.02
2023-03-08T15:30:38.217Z,1.67
2023-03-08T15:32:41.730Z,1.48
2023-03-08T15:34:44.374Z,1.55
2023-03-08T15:36:47.148Z,1.23
2023-03-08T15:38:51.173Z,2.22
2023-03-08T15:40:53.842Z,0.80
2023-03-08T15:42:56.794Z,3.55
2023-03-08T15:44:59.464Z,1.27
2023-03-08T15:47:02.146Z,1.67
2023-03-08T15:49:05.363Z,1.33
2023-03-08T15:51:17.488Z,3.75
2023-03-08T15:53:33.228Z,2.20
2023-03-08T15:55:40.175Z,4.55
2023-03-08T15:57:43.277Z,2.17
2023-03-08T15:59:45.853Z,1.48
2023-03-08T16:01:48.433Z,1.38
2023-03-08T16:03:54.201Z,0.70
2023-03-08T16:05:56.826Z,1.83
2023-03-08T16:08:01.033Z,7.43
2023-03-08T16:10:05.204Z,1.70
2023-03-08T16:12:09.659Z,1.48
2023-03-08T16:14:17.638Z,1.45
2023-03-08T16:16:21.445Z,1.90
2023-03-08T16:18:24.045Z,0.98
2023-03-08T16:20:26.878Z,2.35
2023-03-08T16:22:29.445Z,1.00
2023-03-08T16:24:32.029Z,2.67
2023-03-08T16:26:34.582Z,1.50
2023-03-08T16:28:38.659Z,1.88
2023-03-08T16:30:42.779Z,5.95
2023-03-08T16:32:45.723Z,3.15
2023-03-08T16:34:50.918Z,3.10
2023-03-08T16:36:53.696Z,3.60
2023-03-08T16:38:56.700Z,1.42
2023-03-08T16:41:12.148Z,1.88
2023-03-08T16:43:17.475Z,2.97
2023-03-08T16:45:21.438Z,1.92
2023-03-08T16:47:25.690Z,3.72
2023-03-08T16:49:29.185Z,2.67
2023-03-08T16:51:32.502Z,2.50
2023-03-08T16:53:35.061Z,2.20
2023-03-08T16:55:37.622Z,2.97
2023-03-08T16:57:40.613Z,6.10
2023-03-08T16:59:43.237Z,5.43
2023-03-08T17:01:47.999Z,3.95
2023-03-08T17:03:51.082Z,6.07
2023-03-08T17:05:53.660Z,13.63
2023-03-08T17:07:56.248Z,2.47
2023-03-08T17:09:58.863Z,2.70
2023-03-08T17:12:02.041Z,3.40
2023-03-08T17:14:07.846Z,1.17
2023-03-08T17:16:13.200Z,2.92
2023-03-08T17:18:17.140Z,1.52
2023-03-08T17:20:19.940Z,1.85
2023-03-08T17:22:22.543Z,2.67
2023-03-08T17:24:27.338Z,2.35
2023-03-08T17:26:31.344Z,3.50
2023-03-08T17:28:34.483Z,1.65
2023-03-08T17:30:37.445Z,0.70
2023-03-08T17:32:40.107Z,1.35
2023-03-08T17:34:44.113Z,2.58
2023-03-08T17:36:46.908Z,1.80
2023-03-08T17:38:49.581Z,7.47
2023-03-08T17:40:52.381Z,2.60
2023-03-08T17:42:56.659Z,3.30
2023-03-08T17:44:59.259Z,3.05
2023-03-08T17:47:02.345Z,1.77
2023-03-08T17:49:05.607Z,2.45
2023-03-08T17:51:11.538Z,2.22
2023-03-08T17:53:15.004Z,2.97
2023-03-08T17:55:17.601Z,4.75
2023-03-08T17:57:21.591Z,2.38
2023-03-08T17:59:24.155Z,2.63
2023-03-08T18:01:28.215Z,2.33
2023-03-08T18:03:30.842Z,1.20
2023-03-08T18:05:33.444Z,1.50
2023-03-08T18:07:39.342Z,1.52
2023-03-08T18:09:46.414Z,0.80
2023-03-08T18:11:50.027Z,1.20
2023-03-08T18:13:53.015Z,1.35
2023-03-08T18:15:55.678Z,1.70
2023-03-08T18:17:58.276Z,3.22
2023-03-08T18:20:00.921Z,1.85
2023-03-08T18:22:04.522Z,2.53
2023-03-08T18:24:10.227Z,1.00
2023-03-08T18:26:14.086Z,1.75
2023-03-08T18:28:18.261Z,3.95
2023-03-08T18:30:21.073Z,2.53
2023-03-08T18:32:24.298Z,1.40
2023-03-08T18:34:27.428Z,2.22
2023-03-08T18:36:30.049Z,1.17
2023-03-08T18:38:32.651Z,0.80
2023-03-08T18:40:36.586Z,1.85
2023-03-08T18:42:39.226Z,1.55
2023-03-08T18:44:41.828Z,1.30
2023-03-08T18:46:44.467Z,3.35
2023-03-08T18:48:50.690Z,1.00
2023-03-08T18:50:54.484Z,0.75
2023-03-08T18:52:57.293Z,1.10
2023-03-08T18:54:59.843Z,1.38
2023-03-08T18:57:03.786Z,2.08
2023-03-08T18:59:08.001Z,2.55
2023-03-08T19:01:12.315Z,1.55
2023-03-08T19:03:15.017Z,1.67
2023-03-08T19:05:18.144Z,1.45
2023-03-08T19:07:20.770Z,1.02
2023-03-08T19:09:23.410Z,0.85
2023-03-08T19:11:28.421Z,1.58
2023-03-08T19:13:32.384Z,1.52
2023-03-08T19:15:37.489Z,0.63
2023-03-08T19:17:40.052Z,1.15
2023-03-08T19:19:42.770Z,1.67
2023-03-08T19:21:46.690Z,0.77
2023-03-08T19:23:49.654Z,2.88
2023-03-08T19:26:12.198Z,0.80
2023-03-08T19:28:14.782Z,0.73
2023-03-08T19:30:19.057Z,1.45
2023-03-08T19:32:21.719Z,1.65
2023-03-08T19:34:27.813Z,1.33
2023-03-08T19:36:30.386Z,2.22
2023-03-08T19:38:32.962Z,1.48
2023-03-08T19:40:37.752Z,2.92
2023-03-08T19:42:40.496Z,1.52
2023-03-08T19:44:47.491Z,3.88
2023-03-08T19:46:52.036Z,6.63
2023-03-08T19:48:55.864Z,2.08
2023-03-08T19:50:58.446Z,1.55
2023-03-08T19:53:01.009Z,1.85
2023-03-08T19:55:05.050Z,2.85
2023-03-08T19:57:07.620Z,2.05
2023-03-08T19:59:10.510Z,2.00
2023-03-08T20:01:15.062Z,2.28
2023-03-08T20:03:19.090Z,2.78
2023-03-08T20:05:22.000Z,1.88
2023-03-08T20:07:24.640Z,3.10
2023-03-08T20:09:27.357Z,3.80
2023-03-08T20:11:30.284Z,1.70
2023-03-08T20:13:33.051Z,1.80
2023-03-08T20:15:35.615Z,1.35
2023-03-08T20:17:38.700Z,1.20
2023-03-08T20:19:42.835Z,1.42
2023-03-08T20:21:45.716Z,2.25
2023-03-08T20:23:52.879Z,2.55
2023-03-08T20:25:55.509Z,3.97
2023-03-08T20:27:58.046Z,2.60
2023-03-08T20:30:00.657Z,2.67
2023-03-08T20:32:03.388Z,2.15
2023-03-08T20:34:05.985Z,1.77
2023-03-08T20:36:10.774Z,4.13
2023-03-08T20:38:13.444Z,3.28
2023-03-08T20:40:16.824Z,4.95
2023-03-08T20:42:19.741Z,1.35
2023-03-08T20:44:22.397Z,2.03
2023-03-08T20:46:29.623Z,3.55
2023-03-08T20:48:32.533Z,3.83
2023-03-08T20:50:35.143Z,2.05
2023-03-08T20:52:39.074Z,1.85
2023-03-08T20:54:42.332Z,4.32
2023-03-08T20:56:44.926Z,3.08
2023-03-08T20:58:48.268Z,2.05
2023-03-08T21:00:51.084Z,4.32
2023-03-08T21:02:55.609Z,2.13
2023-03-08T21:04:58.552Z,3.83
2023-03-08T21:07:01.241Z,2.33
2023-03-08T21:09:05.433Z,3.80
2023-03-08T21:11:08.505Z,3.03
2023-03-08T21:13:12.959Z,1.80
2023-03-08T21:15:15.604Z,3.78
2023-03-08T21:17:26.133Z,2.50
2023-03-08T21:19:28.706Z,5.07
2023-03-08T21:21:34.309Z,3.88
2023-03-08T21:23:36.920Z,4.28
2023-03-08T21:25:40.833Z,5.93
2023-03-08T21:27:43.413Z,2.35
2023-03-08T21:29:46.260Z,2.55
2023-03-08T21:31:51.703Z,3.40
2023-03-08T21:33:54.483Z,5.25
2023-03-08T21:35:57.924Z,2.15
2023-03-08T21:38:00.505Z,3.10
2023-03-08T21:40:05.278Z,3.22
2023-03-08T21:42:09.249Z,8.55
2023-03-08T21:44:14.483Z,3.33
2023-03-08T21:46:18.002Z,3.75
2023-03-08T21:48:20.631Z,3.70
2023-03-08T21:50:23.219Z,3.72
2023-03-08T21:52:25.809Z,4.70
2023-03-08T21:54:30.231Z,6.30
2023-03-08T21:56:35.285Z,4.15
2023-03-08T21:58:39.705Z,7.43
2023-03-08T22:00:42.303Z,3.58
2023-03-08T22:02:46.083Z,6.20
2023-03-08T22:04:48.731Z,4.70
2023-03-08T22:06:51.436Z,5.82
2023-03-08T22:08:54.439Z,8.02
2023-03-08T22:10:58.898Z,5.90
2023-03-08T22:13:01.531Z,5.50
2023-03-08T22:15:08.671Z,3.60
2023-03-08T22:17:11.238Z,5.15
2023-03-08T22:19:13.831Z,5.13
2023-03-08T22:21:16.447Z,3.72
2023-03-08T22:23:19.055Z,8.60
2023-03-08T22:25:21.627Z,5.13
2023-03-08T22:27:28.172Z,5.60
2023-03-08T22:29:30.922Z,7.50
2023-03-08T22:31:34.832Z,4.30
2023-03-08T22:33:37.427Z,4.80
2023-03-08T22:35:40.141Z,5.60
2023-03-08T22:37:43.826Z,7.47
2023-03-08T22:39:46.423Z,7.45
2023-03-08T22:41:48.994Z,6.80
2023-03-08T22:43:52.365Z,6.40
2023-03-08T22:45:55.041Z,8.25
2023-03-08T22:48:00.575Z,6.57
2023-03-08T22:50:03.868Z,5.32
2023-03-08T22:52:08.362Z,6.47
2023-03-08T22:54:16.434Z,5.50
2023-03-08T22:56:21.647Z,6.95
2023-03-08T22:58:24.228Z,10.40
2023-03-08T23:00:27.162Z,6.45
2023-03-08T23:02:31.209Z,6.70
2023-03-08T23:04:38.051Z,7.88
2023-03-08T23:06:40.862Z,9.07
2023-03-08T23:08:43.431Z,6.57
2023-03-08T23:10:46.042Z,8.77
2023-03-08T23:12:48.685Z,8.68
2023-03-08T23:14:51.249Z,5.75
2023-03-08T23:16:53.918Z,8.98
2023-03-08T23:18:56.798Z,6.72
2023-03-08T23:21:04.534Z,10.85
2023-03-08T23:23:07.734Z,8.07
2023-03-08T23:25:11.099Z,4.85
2023-03-08T23:27:13.684Z,8.90
2023-03-08T23:29:16.888Z,7.72
2023-03-08T23:31:21.705Z,6.43
2023-03-08T23:33:24.280Z,7.03
2023-03-08T23:35:26.904Z,8.10
2023-03-08T23:37:30.831Z,4.15
2023-03-08T23:39:34.909Z,5.65
2023-03-08T23:41:41.784Z,5.55
2023-03-08T23:43:44.915Z,6.30
2023-03-08T23:45:47.681Z,4.47
2023-03-08T23:47:50.335Z,3.65
2023-03-08T23:49:54.410Z,1.70
2023-03-08T23:51:57.058Z,5.53
2023-03-08T23:54:02.767Z,3.33
2023-03-08T23:56:06.928Z,3.22
2023-03-08T23:58:10.458Z,3.95
